找回密码
 注册
9月份电巢直播计划

推荐主题

本版置顶 隐藏置顶帖 [仿真讨论] SI仿真工具闲聊 107人参与 attach_img  ...23456..9 yawyw 2016-4-9 07:33 121 46704 敢敢 2021-8-31 08:55
本版置顶 隐藏置顶帖 那些年,风靡全球的SI,PI,EMC BOOKS(2009--2015)外文版 162人参与 attach_img  ...23456..13 樱桃海弥 2016-2-2 17:33 183 43181 冷月恰有声 2021-9-16 10:21
      
求sigrity 学习资料 New radioes8 2021-9-20 22:00 0 36 radioes8 2021-9-20 22:00
[Ansys仿真] ANSYS 检查时报错 2人参与 新人帖 New alexchuang 2021-9-19 21:31 2 49 传淘气 2021-9-20 17:09
信号紧耦合还是松耦合好? New 火星撞地球1205 2021-9-19 18:54 0 57 火星撞地球1205 2021-9-19 18:54
[HyperLynx] HyperLynx SI仿真时加入MOSFET后没有链接引脚是什么情况? 3人参与 New Geek生活空间 2021-9-19 11:45 2 59 传淘气 2021-9-20 18:38
[Cadence Sigrity] Sigrity 生成端口失败 1人参与 attach_img New F零度 2021-9-18 16:56 3 81 F零度 2021-9-19 22:45
[ADS仿真] 如何利用ads软件设计低噪声晶振 2人参与 New MrL1 2021-9-18 15:27 2 68 rergr 2021-9-18 17:32
[Cadence Sigrity] 电容模型库索引如何创建 1人参与 New yh521py 2021-9-18 11:45 1 64 sdsdwwwe22 2021-9-18 13:16
[ADS仿真] CST中的模型导入ADS后怎么处理 3人参与 New three 2021-9-18 09:50 3 44 Blah 2021-9-18 15:06
[资料下载] VIA 3.1的安装包 2人参与 attachment New 信号不完整666 2021-9-18 00:11 2 67 unrelated 2021-9-20 23:46
[ADS仿真] ADS从入门到精通学习资料 4人参与 attachment agree New 信号不完整666 2021-9-17 16:47 3 79 benwa 2021-9-19 21:59
[资料下载] PCE协议资料学习共享 2人参与 attachment New 信号不完整666 2021-9-17 16:35 2 84 unrelated 2021-9-19 23:36
[Cadence Sigrity] 【optimizePI、POWER DC】IR drop怎么分析,PDN咋无响应呢 2人参与 新人帖 attach_img New 小叶大魔王 2021-9-17 14:37 5 65 小叶大魔王 2021-9-17 16:26
[ADS仿真] 请教有关ADS中谐波仿真不收敛的问题 3人参与 New MrL1 2021-9-17 14:02 3 57 unrelated 2021-9-18 21:11
[ADS仿真] ADS如何求微带线尺寸 3人参与 New choose521 2021-9-17 09:43 3 42 Blah 2021-9-17 13:47
[Ansys仿真] 好用的HFSS建模工具Via Wizard 下载及使用说明 1人参与 attachment New 信号不完整666 2021-9-16 20:20 1 73 damengshu 2021-9-17 08:59
[Ansys仿真] DDR3仿真资料可用来学习 3人参与 attachment New 信号不完整666 2021-9-16 20:15 3 92 bingshuihuo 2021-9-17 09:19
Ddr3仿真波形异常 2人参与 attach_img New radioes8 2021-9-16 14:57 6 89 radioes8 2021-9-19 21:22
[仿真讨论] 信号完整性分析---串扰和反射 7人参与 New guanshen 2021-9-16 14:52 6 121 killer00 2021-9-17 10:09
[ADS仿真] Allegro进行PCB级的信号完整性仿真 4人参与 New ssdgh 2021-9-16 14:11 4 96 crxxm 2021-9-16 17:07
[HyperLynx] HyperLynx SI信号完整性仿真分析技术 2人参与 New sdsdwwwe22 2021-9-16 13:56 2 41 CLBuu 2021-9-16 17:36
[ADS仿真] 如何将数据手册中的S参数转换生成s2p文件格式,并在ADS软件中仿真? 2人参与 New twel2e 2021-9-15 14:13 2 130 dsgh 2021-9-15 15:58
[仿真讨论] PDN仿真 3人参与 New 874551326 2021-9-15 14:08 3 171 fbish 2021-9-17 09:19
[HyperLynx] HyperLynx SI仿真时加入MOSFET后没有链接引脚是什么情况? 1人参与 New Geek生活空间 2021-9-15 11:07 1 152 Geek生活空间 2021-9-15 11:19
下一页 »
还可输入 80 个字符
您需要登录后才可以发帖 登录 | 注册

本版积分规则

关闭

推荐内容上一条 /1 下一条

EDA365公众号

关于我们|手机版|EDA365电子论坛网 ( 粤ICP备18020198号 )

GMT+8, 2021-9-21 04:45 , Processed in 0.140625 second(s), 13 queries , Gzip On.

深圳市墨知创新科技有限公司

地址:深圳市南山区科技生态园2栋A座805 电话:19925233282

返回顶部 返回版块